createdAt,value
2019-05-01T00:00:50.562Z,0.00
2019-05-01T00:01:50.549Z,0.00
2019-05-01T00:02:50.539Z,0.00
2019-05-01T00:03:50.528Z,0.00
2019-05-01T00:04:50.524Z,0.00
2019-05-01T00:05:50.507Z,0.00
2019-05-01T00:06:50.498Z,0.00
2019-05-01T00:07:50.484Z,0.00
2019-05-01T00:08:50.472Z,0.00
2019-05-01T00:09:50.484Z,0.00
2019-05-01T00:10:50.453Z,0.00
2019-05-01T00:11:50.440Z,0.00
2019-05-01T00:12:50.433Z,0.00
2019-05-01T00:13:50.424Z,0.00
2019-05-01T00:14:50.416Z,0.00
2019-05-01T00:15:50.398Z,0.00
2019-05-01T00:16:50.386Z,0.00
2019-05-01T00:17:50.378Z,0.00
2019-05-01T00:18:50.366Z,0.00
2019-05-01T00:19:50.362Z,0.00
2019-05-01T00:20:50.343Z,0.00
2019-05-01T00:21:50.331Z,0.00
2019-05-01T00:22:50.320Z,0.00
2019-05-01T00:23:50.311Z,0.00
2019-05-01T00:24:50.308Z,0.00
2019-05-01T00:25:50.290Z,0.00
2019-05-01T00:26:50.277Z,0.00
2019-05-01T00:27:50.266Z,0.00
2019-05-01T00:28:50.293Z,0.00
2019-05-01T00:29:50.253Z,0.00
2019-05-01T00:30:50.236Z,0.00
2019-05-01T00:31:50.224Z,0.00
2019-05-01T00:32:50.212Z,0.00
2019-05-01T00:33:50.201Z,0.00
2019-05-01T00:34:50.202Z,0.00
2019-05-01T00:35:50.181Z,0.00
2019-05-01T00:36:50.170Z,0.00
2019-05-01T00:37:50.159Z,0.00
2019-05-01T00:38:50.146Z,0.00
2019-05-01T00:39:50.146Z,0.00
2019-05-01T00:40:50.125Z,0.00
2019-05-01T00:41:50.114Z,0.00
2019-05-01T00:42:50.109Z,0.00
2019-05-01T00:43:50.093Z,0.00
2019-05-01T00:44:50.090Z,0.00
2019-05-01T00:45:50.070Z,0.00
2019-05-01T00:46:50.060Z,0.00
2019-05-01T00:47:50.052Z,0.00
2019-05-01T00:48:50.043Z,0.00
2019-05-01T00:49:50.037Z,0.00
2019-05-01T00:50:50.018Z,0.00
2019-05-01T00:51:50.005Z,0.00
2019-05-01T00:52:49.998Z,0.00
2019-05-01T00:53:49.990Z,0.00
2019-05-01T00:54:49.985Z,0.00
2019-05-01T00:55:49.963Z,0.00
2019-05-01T00:56:49.953Z,0.00
2019-05-01T00:57:49.942Z,0.00
2019-05-01T00:58:49.929Z,0.00
2019-05-01T00:59:49.956Z,0.00
2019-05-01T01:00:49.909Z,0.00
2019-05-01T01:01:49.903Z,0.00
2019-05-01T01:02:49.888Z,0.00
2019-05-01T01:03:49.880Z,0.00
2019-05-01T01:04:49.865Z,0.00
2019-05-01T01:05:49.867Z,0.00
2019-05-01T01:06:49.843Z,0.00
2019-05-01T01:07:49.833Z,0.00
2019-05-01T01:08:49.867Z,0.00
2019-05-01T01:09:49.812Z,0.00
2019-05-01T01:10:49.807Z,0.00
2019-05-01T01:11:49.793Z,0.00
2019-05-01T01:12:49.777Z,0.00
2019-05-01T01:13:49.769Z,0.00
2019-05-01T01:14:49.756Z,0.00
2019-05-01T01:15:49.755Z,0.00
2019-05-01T01:16:49.738Z,0.00
2019-05-01T01:17:49.724Z,0.00
2019-05-01T01:18:49.714Z,0.00
2019-05-01T01:19:49.703Z,0.00
2019-05-01T01:20:49.704Z,0.00
2019-05-01T01:21:49.685Z,0.00
2019-05-01T01:22:49.672Z,0.00
2019-05-01T01:23:49.659Z,0.00
2019-05-01T01:24:49.649Z,0.00
2019-05-01T01:25:49.646Z,0.00
2019-05-01T01:26:49.628Z,0.00
2019-05-01T01:27:49.617Z,0.00
2019-05-01T01:28:49.604Z,0.00
2019-05-01T01:29:49.596Z,0.00
2019-05-01T01:30:56.088Z,0.00
2019-05-01T01:31:50.572Z,0.00
2019-05-01T01:32:49.561Z,0.00
2019-05-01T01:33:49.556Z,0.00
2019-05-01T01:34:49.540Z,0.00
2019-05-01T01:35:49.540Z,0.00
2019-05-01T01:36:49.520Z,0.00
2019-05-01T01:37:49.507Z,0.00
2019-05-01T01:38:49.501Z,0.00
2019-05-01T01:39:49.488Z,0.00
2019-05-01T01:40:49.513Z,0.00
2019-05-01T01:41:49.463Z,0.00
2019-05-01T01:42:49.457Z,0.00
2019-05-01T01:43:49.442Z,0.00
2019-05-01T01:44:49.435Z,0.00
2019-05-01T01:45:49.425Z,0.00
2019-05-01T01:46:49.422Z,0.00
2019-05-01T01:47:49.400Z,0.00
2019-05-01T01:48:49.388Z,0.00
2019-05-01T01:49:49.380Z,0.00
2019-05-01T01:50:49.366Z,0.00
2019-05-01T01:51:49.365Z,0.00
2019-05-01T01:52:49.344Z,0.00
2019-05-01T01:53:49.342Z,0.00
2019-05-01T01:54:49.325Z,0.00
2019-05-01T01:55:49.311Z,0.00
2019-05-01T01:56:49.310Z,0.00
2019-05-01T01:57:49.291Z,0.00
2019-05-01T01:58:49.279Z,0.00
2019-05-01T01:59:49.271Z,0.00
2019-05-01T02:00:49.258Z,0.00
2019-05-01T02:01:49.261Z,0.00
2019-05-01T02:02:49.237Z,0.00
2019-05-01T02:03:49.228Z,0.00
2019-05-01T02:04:49.214Z,0.00
2019-05-01T02:05:49.211Z,0.00
2019-05-01T02:06:49.203Z,0.00
2019-05-01T02:07:49.184Z,0.00
2019-05-01T02:08:56.291Z,0.00
2019-05-01T02:09:50.161Z,0.00
2019-05-01T02:10:49.150Z,0.00
2019-05-01T02:11:49.149Z,0.00
2019-05-01T02:12:49.130Z,0.00
2019-05-01T02:13:49.121Z,0.00
2019-05-01T02:14:49.106Z,0.00
2019-05-01T02:15:49.099Z,0.00
2019-05-01T02:16:49.094Z,0.00
2019-05-01T02:17:49.074Z,0.00
2019-05-01T02:18:49.065Z,0.00
2019-05-01T02:19:49.054Z,0.00
2019-05-01T02:20:49.045Z,0.00
2019-05-01T02:21:49.043Z,0.00
2019-05-01T02:22:49.020Z,0.00
2019-05-01T02:23:49.008Z,0.00
2019-05-01T02:24:48.998Z,0.00
2019-05-01T02:25:48.989Z,0.00
2019-05-01T02:26:48.984Z,0.00
2019-05-01T02:27:48.965Z,0.00
2019-05-01T02:28:48.957Z,0.00
2019-05-01T02:29:48.946Z,0.00
2019-05-01T02:30:48.934Z,0.00
2019-05-01T02:31:48.955Z,0.00
2019-05-01T02:32:48.916Z,0.00
2019-05-01T02:33:48.906Z,0.00
2019-05-01T02:34:48.921Z,0.00
2019-05-01T02:35:48.879Z,0.00
2019-05-01T02:36:48.875Z,0.00
2019-05-01T02:37:48.868Z,0.00
2019-05-01T02:38:48.850Z,0.00
2019-05-01T02:39:48.836Z,0.00
2019-05-01T02:40:48.827Z,0.00
2019-05-01T02:41:48.818Z,0.00
2019-05-01T02:42:48.811Z,0.00
2019-05-01T02:43:48.796Z,0.00
2019-05-01T02:44:48.782Z,0.00
2019-05-01T02:45:48.776Z,0.00
2019-05-01T02:46:48.761Z,0.00
2019-05-01T02:47:48.757Z,0.00
2019-05-01T02:48:52.589Z,0.00
2019-05-01T02:49:48.730Z,0.00
2019-05-01T02:50:48.717Z,0.00
2019-05-01T02:51:48.707Z,0.00
2019-05-01T02:52:48.703Z,0.00
2019-05-01T02:53:48.684Z,0.00
2019-05-01T02:54:48.673Z,0.00
2019-05-01T02:55:48.663Z,0.00
2019-05-01T02:56:48.654Z,0.00
2019-05-01T02:57:48.651Z,0.00
2019-05-01T02:58:48.631Z,0.00
2019-05-01T02:59:48.621Z,0.00
2019-05-01T03:00:48.608Z,0.00
2019-05-01T03:01:48.603Z,0.00
2019-05-01T03:02:48.600Z,0.00
2019-05-01T03:03:48.578Z,0.00
2019-05-01T03:04:48.568Z,0.00
2019-05-01T03:05:48.555Z,0.00
2019-05-01T03:06:48.548Z,4.00
2019-05-01T03:07:48.543Z,4.00
2019-05-01T03:08:48.525Z,0.00
2019-05-01T03:09:48.512Z,0.00
2019-05-01T03:10:48.503Z,0.00
2019-05-01T03:11:48.495Z,4.00
2019-05-01T03:12:48.493Z,4.00
2019-05-01T03:13:48.470Z,4.00
2019-05-01T03:14:48.467Z,0.00
2019-05-01T03:15:48.449Z,4.00
2019-05-01T03:16:48.436Z,4.00
2019-05-01T03:17:48.460Z,4.00
2019-05-01T03:18:48.415Z,4.00
2019-05-01T03:19:48.406Z,4.00
2019-05-01T03:20:48.393Z,4.00
2019-05-01T03:21:48.384Z,8.00
2019-05-01T03:22:48.374Z,8.00
2019-05-01T03:23:48.375Z,8.00
2019-05-01T03:24:48.352Z,8.00
2019-05-01T03:25:48.339Z,8.00
2019-05-01T03:26:48.374Z,12.00
2019-05-01T03:27:48.319Z,16.00
2019-05-01T03:28:48.319Z,16.00
2019-05-01T03:29:48.298Z,20.00
2019-05-01T03:30:48.292Z,20.00
2019-05-01T03:32:14.554Z,24.00
2019-05-01T03:32:49.263Z,24.00
2019-05-01T03:33:48.283Z,24.00
2019-05-01T03:34:52.291Z,28.00
2019-05-01T03:35:48.234Z,32.00
2019-05-01T03:36:48.219Z,32.00
2019-05-01T03:37:48.215Z,36.00
2019-05-01T03:38:48.210Z,44.00
2019-05-01T03:39:48.188Z,48.00
2019-05-01T03:40:48.182Z,48.00
2019-05-01T03:41:48.170Z,56.00
2019-05-01T03:42:48.158Z,64.00
2019-05-01T03:43:48.153Z,68.00
2019-05-01T03:44:48.140Z,76.00
2019-05-01T03:45:48.128Z,84.00
2019-05-01T03:46:48.119Z,88.00
2019-05-01T03:47:48.105Z,100.00
2019-05-01T03:48:48.109Z,104.00
2019-05-01T03:49:48.081Z,112.00
2019-05-01T03:50:48.072Z,112.00
2019-05-01T03:51:48.060Z,108.00
2019-05-01T03:52:48.050Z,104.00
2019-05-01T03:53:48.039Z,112.00
2019-05-01T03:54:48.036Z,116.00
2019-05-01T03:55:48.016Z,128.00
2019-05-01T03:56:48.007Z,136.00
2019-05-01T03:57:47.996Z,144.00
2019-05-01T03:58:47.985Z,152.00
2019-05-01T03:59:47.982Z,156.00
2019-05-01T04:00:47.970Z,164.00
2019-05-01T04:01:47.952Z,172.00
2019-05-01T04:02:47.940Z,176.00
2019-05-01T04:03:47.931Z,184.00
2019-05-01T04:04:47.935Z,188.00
2019-05-01T04:05:47.908Z,196.00
2019-05-01T04:06:47.899Z,200.00
2019-05-01T04:07:47.887Z,216.00
2019-05-01T04:08:47.879Z,228.00
2019-05-01T04:09:47.877Z,248.00
2019-05-01T04:10:47.854Z,276.00
2019-05-01T04:11:47.852Z,308.00
2019-05-01T04:12:47.833Z,336.00
2019-05-01T04:13:47.898Z,336.00
2019-05-01T04:14:47.820Z,340.00
2019-05-01T04:15:47.799Z,364.00
2019-05-01T04:16:47.791Z,324.00
2019-05-01T04:17:47.781Z,296.00
2019-05-01T04:18:47.769Z,300.00
2019-05-01T04:19:47.766Z,312.00
2019-05-01T04:20:47.746Z,336.00
2019-05-01T04:21:47.735Z,272.00
2019-05-01T04:22:47.727Z,244.00
2019-05-01T04:23:47.715Z,232.00
2019-05-01T04:24:47.713Z,232.00
2019-05-01T04:25:47.692Z,240.00
2019-05-01T04:26:47.681Z,260.00
2019-05-01T04:27:47.671Z,280.00
2019-05-01T04:28:47.661Z,316.00
2019-05-01T04:29:47.672Z,352.00
2019-05-01T04:30:47.639Z,400.00
2019-05-01T04:31:47.628Z,440.00
2019-05-01T04:32:52.652Z,460.00
2019-05-01T04:33:48.608Z,500.00
2019-05-01T04:34:47.597Z,532.00
2019-05-01T04:35:47.593Z,560.00
2019-05-01T04:36:47.573Z,580.00
2019-05-01T04:37:47.564Z,580.00
2019-05-01T04:38:47.559Z,572.00
2019-05-01T04:39:47.546Z,556.00
2019-05-01T04:40:47.541Z,544.00
2019-05-01T04:41:47.521Z,524.00
2019-05-01T04:42:47.514Z,508.00
2019-05-01T04:43:47.500Z,496.00
2019-05-01T04:44:47.487Z,484.00
2019-05-01T04:45:47.487Z,476.00
2019-05-01T04:46:47.468Z,472.00
2019-05-01T04:47:47.457Z,480.00
2019-05-01T04:48:47.445Z,504.00
2019-05-01T04:49:47.436Z,536.00
2019-05-01T04:50:47.443Z,600.00
2019-05-01T04:51:47.414Z,696.00
2019-05-01T04:52:47.401Z,824.00
2019-05-01T04:53:47.390Z,992.00
2019-05-01T04:54:47.380Z,1184.00
2019-05-01T04:55:47.377Z,1368.00
2019-05-01T04:56:47.358Z,1540.00
2019-05-01T04:57:47.351Z,1712.00
2019-05-01T04:58:47.337Z,1852.00
2019-05-01T04:59:47.330Z,1948.00
2019-05-01T05:00:47.326Z,1956.00
2019-05-01T05:01:47.306Z,1844.00
2019-05-01T05:02:47.294Z,1720.00
2019-05-01T05:03:47.291Z,1612.00
2019-05-01T05:04:47.272Z,1536.00
2019-05-01T05:05:47.270Z,1504.00
2019-05-01T05:06:47.251Z,1528.00
2019-05-01T05:07:47.242Z,1548.00
2019-05-01T05:08:47.240Z,1520.00
2019-05-01T05:09:47.220Z,1460.00
2019-05-01T05:10:47.241Z,1336.00
2019-05-01T05:11:47.197Z,1228.00
2019-05-01T05:12:47.188Z,1188.00
2019-05-01T05:13:47.193Z,1220.00
2019-05-01T05:14:47.166Z,1308.00
2019-05-01T05:15:47.154Z,1416.00
2019-05-01T05:16:47.151Z,1552.00
2019-05-01T05:17:47.134Z,1692.00
2019-05-01T05:18:47.122Z,1848.00
2019-05-01T05:19:47.111Z,2028.00
2019-05-01T05:20:47.101Z,3480.00
2019-05-01T05:21:47.098Z,2524.00
2019-05-01T05:22:47.082Z,2048.00
2019-05-01T05:23:47.074Z,2124.00
2019-05-01T05:24:47.057Z,2324.00
2019-05-01T05:25:47.047Z,2560.00
2019-05-01T05:26:47.045Z,2848.00
2019-05-01T05:27:47.025Z,3236.00
2019-05-01T05:28:47.017Z,3860.00
2019-05-01T05:29:47.004Z,5056.00
2019-05-01T05:30:46.995Z,3920.00
2019-05-01T05:31:46.990Z,4112.00
2019-05-01T05:32:46.975Z,4228.00
2019-05-01T05:33:46.961Z,4508.00
2019-05-01T05:34:46.952Z,4936.00
2019-05-01T05:35:46.940Z,6252.00
2019-05-01T05:36:46.938Z,9116.00
2019-05-01T05:37:46.921Z,10552.00
2019-05-01T05:38:46.915Z,9828.00
2019-05-01T05:39:46.948Z,12520.00
2019-05-01T05:40:46.887Z,44384.00
2019-05-01T05:41:46.886Z,43392.00
2019-05-01T05:42:46.870Z,43520.00
2019-05-01T05:43:46.855Z,42528.00
2019-05-01T05:44:46.845Z,40736.00
2019-05-01T05:45:46.833Z,39552.00
2019-05-01T05:46:46.833Z,35200.00
2019-05-01T05:47:46.812Z,20352.00
2019-05-01T05:48:46.800Z,12240.00
2019-05-01T05:49:46.790Z,4928.00
2019-05-01T05:50:46.781Z,4660.00
2019-05-01T05:51:46.768Z,4692.00
2019-05-01T05:52:46.767Z,4868.00
2019-05-01T05:53:46.748Z,5104.00
2019-05-01T05:54:46.736Z,5820.00
2019-05-01T05:55:46.725Z,11192.00
2019-05-01T05:56:46.714Z,7520.00
2019-05-01T05:57:46.720Z,5764.00
2019-05-01T05:58:46.693Z,4556.00
2019-05-01T05:59:46.683Z,4012.00
2019-05-01T06:00:46.671Z,3732.00
2019-05-01T06:01:46.663Z,3488.00
2019-05-01T06:02:46.661Z,3380.00
2019-05-01T06:03:46.641Z,3308.00
2019-05-01T06:04:46.629Z,3176.00
2019-05-01T06:05:46.620Z,2968.00
2019-05-01T06:06:46.608Z,2720.00
2019-05-01T06:07:46.607Z,2544.00
2019-05-01T06:08:46.586Z,2432.00
2019-05-01T06:09:48.499Z,2240.00
2019-05-01T06:10:46.565Z,2260.00
2019-05-01T06:11:46.555Z,2172.00
2019-05-01T06:12:48.281Z,2096.00
2019-05-01T06:13:46.530Z,2008.00
2019-05-01T06:14:46.519Z,1944.00
2019-05-01T06:15:48.960Z,1884.00
2019-05-01T06:16:46.852Z,1848.00
2019-05-01T06:17:47.518Z,1832.00
2019-05-01T06:18:46.475Z,1828.00
2019-05-01T06:19:49.708Z,1844.00
2019-05-01T06:20:46.454Z,1884.00
2019-05-01T06:21:46.444Z,1944.00
2019-05-01T06:22:46.433Z,2072.00
2019-05-01T06:23:46.432Z,2204.00
2019-05-01T06:24:46.412Z,2312.00
2019-05-01T06:25:46.401Z,2452.00
2019-05-01T06:26:46.391Z,2688.00
2019-05-01T06:27:49.281Z,3052.00
2019-05-01T06:28:46.386Z,3628.00
2019-05-01T06:29:46.359Z,4208.00
2019-05-01T06:30:47.163Z,4692.00
2019-05-01T06:31:46.338Z,2276.00
2019-05-01T06:32:46.328Z,1888.00
2019-05-01T06:33:48.591Z,1564.00
2019-05-01T06:34:47.307Z,1352.00
2019-05-01T06:35:46.299Z,1256.00
2019-05-01T06:36:49.728Z,1212.00
2019-05-01T06:37:47.275Z,1212.00
2019-05-01T06:38:46.272Z,1180.00
2019-05-01T06:39:48.010Z,1164.00
2019-05-01T06:40:46.243Z,1172.00
2019-05-01T06:41:46.233Z,1188.00
2019-05-01T06:42:50.092Z,1192.00
2019-05-01T06:43:46.219Z,1204.00
2019-05-01T06:44:46.200Z,1236.00
2019-05-01T06:45:46.871Z,1284.00
2019-05-01T06:46:46.181Z,1384.00
2019-05-01T06:47:46.167Z,1536.00
2019-05-01T06:48:48.843Z,1724.00
2019-05-01T06:49:47.147Z,1888.00
2019-05-01T06:50:46.135Z,1984.00
2019-05-01T06:51:48.065Z,2024.00
2019-05-01T06:52:47.118Z,1972.00
2019-05-01T06:53:46.113Z,1852.00
2019-05-01T06:54:47.693Z,1740.00
2019-05-01T06:55:47.081Z,1668.00
2019-05-01T06:56:46.083Z,1652.00
2019-05-01T06:57:46.062Z,1648.00
2019-05-01T06:58:46.080Z,1664.00
2019-05-01T06:59:46.041Z,1668.00
2019-05-01T07:00:46.029Z,1664.00
2019-05-01T07:01:46.019Z,1676.00
2019-05-01T07:02:46.007Z,1736.00
2019-05-01T07:04:02.850Z,1828.00
2019-05-01T07:04:46.995Z,1940.00
2019-05-01T07:05:49.152Z,2016.00
2019-05-01T07:06:46.972Z,2084.00
2019-05-01T07:07:48.283Z,2128.00
2019-05-01T07:08:46.946Z,2132.00
2019-05-01T07:09:49.375Z,2080.00
2019-05-01T07:10:46.919Z,1984.00
2019-05-01T07:11:47.708Z,1760.00
2019-05-01T07:12:46.899Z,1692.00
2019-05-01T07:13:45.890Z,1668.00
2019-05-01T07:14:47.031Z,1664.00
2019-05-01T07:15:45.867Z,1660.00
2019-05-01T07:16:45.869Z,1656.00
2019-05-01T07:17:47.822Z,1732.00
2019-05-01T07:18:45.835Z,1828.00
2019-05-01T07:19:45.833Z,1916.00
2019-05-01T07:20:47.225Z,1988.00
2019-05-01T07:21:46.802Z,2064.00
2019-05-01T07:22:45.799Z,2180.00
2019-05-01T07:23:47.770Z,2328.00
2019-05-01T07:24:49.066Z,2492.00
2019-05-01T07:25:45.760Z,2672.00
2019-05-01T07:26:48.000Z,2716.00
2019-05-01T07:27:45.738Z,2700.00
2019-05-01T07:28:45.729Z,2712.00
2019-05-01T07:29:46.660Z,2788.00
2019-05-01T07:30:49.955Z,2916.00
2019-05-01T07:31:46.695Z,2984.00
2019-05-01T07:32:45.686Z,3164.00
2019-05-01T07:33:49.463Z,3176.00
2019-05-01T07:34:48.954Z,3216.00
2019-05-01T07:35:45.653Z,3308.00
2019-05-01T07:36:49.887Z,3256.00
2019-05-01T07:37:45.631Z,3228.00
2019-05-01T07:38:45.621Z,3120.00
2019-05-01T07:39:49.955Z,2984.00
2019-05-01T07:40:46.607Z,2840.00
2019-05-01T07:41:45.589Z,2740.00
2019-05-01T07:42:48.222Z,2688.00
2019-05-01T07:43:45.568Z,2740.00
2019-05-01T07:44:45.557Z,2820.00
2019-05-01T07:45:45.558Z,2980.00
2019-05-01T07:46:48.775Z,3272.00
2019-05-01T07:47:46.525Z,3496.00
2019-05-01T07:48:45.515Z,3784.00
2019-05-01T07:49:47.762Z,4044.00
2019-05-01T07:50:46.503Z,4316.00
2019-05-01T07:51:45.485Z,4712.00
2019-05-01T07:52:47.682Z,5552.00
2019-05-01T07:53:46.461Z,7380.00
2019-05-01T07:54:47.210Z,8440.00
2019-05-01T07:55:48.636Z,9036.00
2019-05-01T07:56:45.431Z,8952.00
2019-05-01T07:57:45.424Z,8352.00
2019-05-01T07:58:47.514Z,8760.00
2019-05-01T07:59:46.397Z,8744.00
2019-05-01T08:00:45.396Z,7992.00
2019-05-01T08:01:45.377Z,8480.00
2019-05-01T08:02:45.371Z,9156.00
2019-05-01T08:03:45.355Z,11032.00
2019-05-01T08:04:45.345Z,10312.00
2019-05-01T08:05:46.661Z,10816.00
2019-05-01T08:06:45.324Z,9832.00
2019-05-01T08:07:45.312Z,11692.00
2019-05-01T08:08:45.302Z,10448.00
2019-05-01T08:09:45.863Z,10848.00
2019-05-01T08:10:45.278Z,11492.00
2019-05-01T08:11:45.555Z,9284.00
2019-05-01T08:12:45.351Z,7720.00
2019-05-01T08:13:45.243Z,7132.00
2019-05-01T08:14:47.862Z,6912.00
2019-05-01T08:15:46.225Z,7036.00
2019-05-01T08:16:45.221Z,8092.00
2019-05-01T08:17:48.835Z,8696.00
2019-05-01T08:18:46.191Z,8564.00
2019-05-01T08:19:45.179Z,9736.00
2019-05-01T08:20:45.721Z,9492.00
2019-05-01T08:21:45.171Z,8652.00
2019-05-01T08:22:45.147Z,8908.00
2019-05-01T08:23:47.111Z,9404.00
2019-05-01T08:24:45.145Z,9836.00
2019-05-01T08:25:45.114Z,8756.00
2019-05-01T08:26:45.995Z,9016.00
2019-05-01T08:27:45.095Z,9660.00
2019-05-01T08:28:45.082Z,9488.00
2019-05-01T08:29:45.070Z,9784.00
2019-05-01T08:30:47.975Z,10460.00
2019-05-01T08:31:46.058Z,10564.00
2019-05-01T08:32:45.039Z,10188.00
2019-05-01T08:33:49.839Z,10948.00
2019-05-01T08:34:49.083Z,10272.00
2019-05-01T08:35:45.007Z,10264.00
2019-05-01T08:36:47.179Z,10796.00
2019-05-01T08:37:44.986Z,11512.00
2019-05-01T08:38:44.975Z,11796.00
2019-05-01T08:39:45.879Z,11592.00
2019-05-01T08:40:44.951Z,11332.00
2019-05-01T08:41:44.952Z,10440.00
2019-05-01T08:42:44.930Z,9620.00
2019-05-01T08:43:48.894Z,8288.00
2019-05-01T08:44:45.909Z,8700.00
2019-05-01T08:45:44.898Z,8896.00
2019-05-01T08:46:46.726Z,8912.00
2019-05-01T08:47:45.886Z,8680.00
2019-05-01T08:48:44.867Z,8244.00
2019-05-01T08:49:49.480Z,7900.00
2019-05-01T08:50:45.876Z,8116.00
2019-05-01T08:51:44.835Z,8124.00
2019-05-01T08:52:47.377Z,7332.00
2019-05-01T08:53:44.815Z,7064.00
2019-05-01T08:54:44.806Z,7424.00
2019-05-01T08:55:46.891Z,7368.00
2019-05-01T08:56:44.805Z,7228.00
2019-05-01T08:57:44.779Z,7424.00
2019-05-01T08:58:49.320Z,7248.00
2019-05-01T08:59:45.749Z,7140.00
2019-05-01T09:00:44.738Z,7368.00
2019-05-01T09:01:45.752Z,7376.00
2019-05-01T09:02:45.724Z,7196.00
2019-05-01T09:03:44.706Z,7228.00
2019-05-01T09:04:44.695Z,7860.00
2019-05-01T09:05:44.687Z,7364.00
2019-05-01T09:06:45.248Z,7472.00
2019-05-01T09:07:44.790Z,7632.00
2019-05-01T09:08:44.658Z,7852.00
2019-05-01T09:09:45.858Z,7900.00
2019-05-01T09:10:44.631Z,8208.00
2019-05-01T09:11:44.655Z,8328.00
2019-05-01T09:12:46.933Z,7872.00
2019-05-01T09:13:44.600Z,7540.00
2019-05-01T09:14:44.588Z,7476.00
2019-05-01T09:15:48.269Z,7376.00
2019-05-01T09:16:44.568Z,7476.00
2019-05-01T09:17:44.565Z,7712.00
2019-05-01T09:18:44.548Z,8180.00
2019-05-01T09:19:44.540Z,7416.00
2019-05-01T09:20:44.527Z,7812.00
2019-05-01T09:21:44.516Z,7216.00
2019-05-01T09:22:44.564Z,7308.00
2019-05-01T09:23:46.221Z,7336.00
2019-05-01T09:24:45.483Z,7280.00
2019-05-01T09:25:44.500Z,6904.00
2019-05-01T09:26:45.339Z,6856.00
2019-05-01T09:27:45.460Z,6764.00
2019-05-01T09:28:44.439Z,6920.00
2019-05-01T09:29:46.828Z,6484.00
2019-05-01T09:30:45.417Z,6996.00
2019-05-01T09:31:44.412Z,6696.00
2019-05-01T09:32:45.909Z,6784.00
2019-05-01T09:33:45.386Z,7012.00
2019-05-01T09:34:44.377Z,7104.00
2019-05-01T09:35:45.362Z,6924.00
2019-05-01T09:36:44.355Z,6856.00
2019-05-01T09:37:44.357Z,6916.00
2019-05-01T09:38:44.334Z,7732.00
2019-05-01T09:39:47.200Z,7412.00
2019-05-01T09:40:44.313Z,6704.00
2019-05-01T09:41:47.578Z,6708.00
2019-05-01T09:42:44.302Z,6984.00
2019-05-01T09:43:44.281Z,7216.00
2019-05-01T09:44:44.269Z,7580.00
2019-05-01T09:45:44.259Z,7652.00
2019-05-01T09:46:44.249Z,7468.00
2019-05-01T09:47:44.263Z,7172.00
2019-05-01T09:48:44.228Z,8440.00
2019-05-01T09:49:44.225Z,8680.00
2019-05-01T09:50:44.208Z,8432.00
2019-05-01T09:51:47.523Z,7036.00
2019-05-01T09:52:44.184Z,6760.00
2019-05-01T09:53:44.196Z,7016.00
2019-05-01T09:54:46.756Z,8512.00
2019-05-01T09:55:44.152Z,7400.00
2019-05-01T09:56:44.142Z,6700.00
2019-05-01T09:57:44.132Z,6232.00
2019-05-01T09:58:44.129Z,6708.00
2019-05-01T09:59:44.111Z,8052.00
2019-05-01T10:00:44.108Z,7972.00
2019-05-01T10:01:44.089Z,8084.00
2019-05-01T10:02:44.077Z,7588.00
2019-05-01T10:03:44.945Z,8316.00
2019-05-01T10:04:44.056Z,6272.00
2019-05-01T10:05:44.228Z,6336.00
2019-05-01T10:06:47.786Z,7500.00
2019-05-01T10:07:45.022Z,7616.00
2019-05-01T10:08:44.020Z,6780.00
2019-05-01T10:09:47.296Z,5808.00
2019-05-01T10:10:44.990Z,6516.00
2019-05-01T10:11:43.979Z,6440.00
2019-05-01T10:12:46.917Z,7064.00
2019-05-01T10:13:43.965Z,6984.00
2019-05-01T10:14:43.948Z,6904.00
2019-05-01T10:15:43.937Z,6836.00
2019-05-01T10:16:43.924Z,6668.00
2019-05-01T10:17:43.914Z,6260.00
2019-05-01T10:18:43.910Z,6348.00
2019-05-01T10:19:43.894Z,6112.00
2019-05-01T10:20:43.883Z,4660.00
2019-05-01T10:21:43.871Z,6516.00
2019-05-01T10:22:43.862Z,6808.00
2019-05-01T10:23:47.036Z,6960.00
2019-05-01T10:24:44.837Z,6332.00
2019-05-01T10:25:47.907Z,5100.00
2019-05-01T10:26:44.818Z,5180.00
2019-05-01T10:27:43.805Z,5448.00
2019-05-01T10:28:44.963Z,5064.00
2019-05-01T10:29:44.785Z,4920.00
2019-05-01T10:30:43.777Z,5196.00
2019-05-01T10:31:46.617Z,5300.00
2019-05-01T10:32:43.752Z,6016.00
2019-05-01T10:33:43.746Z,5936.00
2019-05-01T10:34:44.606Z,5840.00
2019-05-01T10:35:43.720Z,5848.00
2019-05-01T10:36:43.709Z,5832.00
2019-05-01T10:37:43.697Z,5972.00
2019-05-01T10:38:45.001Z,5924.00
2019-05-01T10:39:43.687Z,5924.00
2019-05-01T10:40:43.667Z,5904.00
2019-05-01T10:41:46.422Z,5872.00
2019-05-01T10:42:43.645Z,6020.00
2019-05-01T10:43:43.633Z,6032.00
2019-05-01T10:44:43.634Z,5996.00
2019-05-01T10:45:43.613Z,5984.00
2019-05-01T10:46:43.601Z,6028.00
2019-05-01T10:47:43.590Z,5932.00
2019-05-01T10:48:43.579Z,6148.00
2019-05-01T10:49:43.578Z,6176.00
2019-05-01T10:50:43.561Z,6600.00
2019-05-01T10:51:43.547Z,6548.00
2019-05-01T10:52:43.538Z,6604.00
2019-05-01T10:53:43.527Z,6476.00
2019-05-01T10:54:46.423Z,6424.00
2019-05-01T10:55:43.507Z,6324.00
2019-05-01T10:56:43.495Z,6252.00
2019-05-01T10:57:43.485Z,5484.00
2019-05-01T10:58:43.477Z,6212.00
2019-05-01T10:59:43.484Z,6328.00
2019-05-01T11:00:43.453Z,5988.00
2019-05-01T11:01:43.444Z,6144.00
2019-05-01T11:02:43.433Z,5276.00
2019-05-01T11:03:43.424Z,5640.00
2019-05-01T11:04:43.417Z,5752.00
2019-05-01T11:05:55.209Z,4696.00
2019-05-01T11:06:44.387Z,4468.00
2019-05-01T11:07:43.378Z,5284.00
2019-05-01T11:08:43.369Z,4268.00
2019-05-01T11:09:43.356Z,4064.00
2019-05-01T11:10:43.356Z,5892.00
2019-05-01T11:11:43.337Z,6544.00
2019-05-01T11:12:43.326Z,4884.00
2019-05-01T11:13:43.315Z,5212.00
2019-05-01T11:14:43.310Z,6068.00
2019-05-01T11:15:43.304Z,5104.00
2019-05-01T11:16:43.282Z,4892.00
2019-05-01T11:17:43.275Z,5004.00
2019-05-01T11:18:43.260Z,5892.00
2019-05-01T11:19:43.249Z,6484.00
2019-05-01T11:20:43.248Z,5884.00
2019-05-01T11:21:43.228Z,5200.00
2019-05-01T11:22:43.218Z,5068.00
2019-05-01T11:23:43.209Z,4644.00
2019-05-01T11:24:43.198Z,5504.00
2019-05-01T11:25:44.634Z,5300.00
2019-05-01T11:26:43.175Z,5160.00
2019-05-01T11:27:43.164Z,5940.00
2019-05-01T11:28:43.157Z,4236.00
2019-05-01T11:29:43.145Z,4000.00
2019-05-01T11:30:43.170Z,4008.00
2019-05-01T11:31:43.123Z,5916.00
2019-05-01T11:32:43.111Z,6320.00
2019-05-01T11:33:43.104Z,6420.00
2019-05-01T11:34:43.094Z,5868.00
2019-05-01T11:35:43.079Z,5528.00
2019-05-01T11:36:43.078Z,4672.00
2019-05-01T11:37:43.058Z,5540.00
2019-05-01T11:38:43.049Z,5976.00
2019-05-01T11:39:43.037Z,5976.00
2019-05-01T11:40:43.026Z,5852.00
2019-05-01T11:41:43.025Z,6096.00
2019-05-01T11:42:43.007Z,5988.00
2019-05-01T11:43:42.995Z,6124.00
2019-05-01T11:44:42.986Z,6072.00
2019-05-01T11:45:42.973Z,5960.00
2019-05-01T11:46:42.970Z,5888.00
2019-05-01T11:47:42.960Z,5684.00
2019-05-01T11:48:44.500Z,5440.00
2019-05-01T11:49:42.931Z,5196.00
2019-05-01T11:50:42.922Z,4812.00
2019-05-01T11:51:42.921Z,4088.00
2019-05-01T11:52:42.899Z,4860.00
2019-05-01T11:53:42.888Z,4420.00
2019-05-01T11:54:42.876Z,5972.00
2019-05-01T11:55:42.867Z,4300.00
2019-05-01T11:56:42.866Z,5876.00
2019-05-01T11:57:42.845Z,5952.00
2019-05-01T11:58:43.545Z,5084.00
2019-05-01T11:59:42.825Z,5832.00
2019-05-01T12:00:42.813Z,5376.00
2019-05-01T12:01:42.813Z,5940.00
2019-05-01T12:02:42.794Z,3620.00
2019-05-01T12:03:42.784Z,3492.00
2019-05-01T12:04:42.770Z,4336.00
2019-05-01T12:05:42.761Z,3944.00
2019-05-01T12:06:42.789Z,3704.00
2019-05-01T12:07:42.738Z,5712.00
2019-05-01T12:08:42.728Z,5968.00
2019-05-01T12:09:42.717Z,5920.00
2019-05-01T12:10:42.707Z,4384.00
2019-05-01T12:11:42.695Z,4852.00
2019-05-01T12:12:42.694Z,3840.00
2019-05-01T12:13:43.819Z,4204.00
2019-05-01T12:14:42.667Z,4120.00
2019-05-01T12:15:42.654Z,5300.00
2019-05-01T12:16:42.645Z,4036.00
2019-05-01T12:17:42.641Z,5020.00
2019-05-01T12:18:42.622Z,4032.00
2019-05-01T12:19:42.614Z,3816.00
2019-05-01T12:20:42.599Z,3732.00
2019-05-01T12:21:42.588Z,3500.00
2019-05-01T12:22:42.586Z,3600.00
2019-05-01T12:23:42.568Z,4264.00
2019-05-01T12:24:42.561Z,4800.00
2019-05-01T12:25:42.545Z,4568.00
2019-05-01T12:26:42.535Z,5640.00